createdAt,value
2023-05-17T00:06:48.937Z,804.78
2023-05-17T00:16:50.446Z,810.90
2023-05-17T00:26:51.915Z,781.55
2023-05-17T00:36:53.386Z,776.08
2023-05-17T00:46:54.846Z,760.65
2023-05-17T00:56:57.606Z,731.50
2023-05-17T01:06:59.053Z,738.30
2023-05-17T01:17:06.440Z,737.92
2023-05-17T01:27:08.058Z,736.67
2023-05-17T01:37:09.791Z,741.10
2023-05-17T01:47:16.529Z,739.70
2023-05-17T01:57:19.780Z,727.33
2023-05-17T02:07:21.298Z,718.63
2023-05-17T02:17:22.884Z,687.72
2023-05-17T02:27:24.348Z,693.53
2023-05-17T02:37:26.165Z,701.75
2023-05-17T02:47:27.685Z,690.00
2023-05-17T02:57:29.239Z,672.55
2023-05-17T03:07:30.727Z,654.63
2023-05-17T03:17:32.286Z,636.75
2023-05-17T03:27:34.001Z,628.50
2023-05-17T03:37:35.797Z,620.58
2023-05-17T03:47:37.450Z,634.17
2023-05-17T03:57:39.064Z,658.65
2023-05-17T04:07:40.821Z,680.35
2023-05-17T04:17:42.298Z,700.83
2023-05-17T04:27:44.901Z,719.65
2023-05-17T04:37:46.339Z,709.63
2023-05-17T04:47:48.187Z,728.47
2023-05-17T04:57:49.917Z,722.63
2023-05-17T05:07:51.563Z,762.33
2023-05-17T05:17:53.184Z,762.67
2023-05-17T05:27:54.730Z,752.22
2023-05-17T05:37:57.164Z,758.80
2023-05-17T05:47:58.687Z,777.15
2023-05-17T05:58:00.186Z,805.53
2023-05-17T06:08:01.678Z,815.58
2023-05-17T06:18:03.265Z,876.65
2023-05-17T06:28:04.916Z,921.13
2023-05-17T06:38:06.344Z,956.28
2023-05-17T06:48:08.000Z,988.22
2023-05-17T06:58:09.509Z,998.85
2023-05-17T07:08:10.931Z,999.90
2023-05-17T07:18:12.522Z,999.90
2023-05-17T07:28:15.166Z,999.90
2023-05-17T07:38:16.839Z,999.90
2023-05-17T07:48:18.521Z,999.90
2023-05-17T07:58:22.056Z,999.90
2023-05-17T08:08:23.648Z,999.90
2023-05-17T08:18:30.781Z,999.90
2023-05-17T08:28:32.346Z,999.90
2023-05-17T08:38:34.386Z,999.90
2023-05-17T08:48:42.052Z,999.90
2023-05-17T08:58:55.546Z,999.90
2023-05-17T09:08:58.268Z,999.90
2023-05-17T09:19:00.222Z,999.90
2023-05-17T09:29:01.762Z,999.90
2023-05-17T09:39:05.897Z,999.90
2023-05-17T09:49:09.159Z,999.90
2023-05-17T09:59:11.928Z,999.90
2023-05-17T10:09:13.951Z,999.90
2023-05-17T10:19:16.132Z,999.90
2023-05-17T10:29:18.243Z,999.90
2023-05-17T10:39:20.259Z,999.90
2023-05-17T10:49:26.979Z,999.90
2023-05-17T10:59:29.630Z,999.90
2023-05-17T11:09:31.102Z,999.90
2023-05-17T11:19:32.772Z,999.90
2023-05-17T11:29:34.431Z,999.90
2023-05-17T11:39:36.238Z,999.90
2023-05-17T11:49:38.404Z,999.90
2023-05-17T11:59:40.110Z,999.90
2023-05-17T12:09:44.126Z,999.90
2023-05-17T12:19:45.634Z,999.90
2023-05-17T12:29:47.242Z,999.90
2023-05-17T12:39:48.945Z,999.90
2023-05-17T12:49:56.753Z,999.90
2023-05-17T12:59:58.320Z,999.90
2023-05-17T13:09:59.886Z,999.90
2023-05-17T13:20:01.438Z,999.90
2023-05-17T13:30:03.090Z,999.90
2023-05-17T13:40:04.998Z,999.90
2023-05-17T13:50:07.829Z,999.90
2023-05-17T14:00:09.906Z,999.90
2023-05-17T14:10:14.514Z,999.90
2023-05-17T14:20:16.107Z,999.90
2023-05-17T14:30:17.648Z,999.90
2023-05-17T14:40:19.081Z,999.90
2023-05-17T14:50:20.695Z,999.90
2023-05-17T15:00:22.245Z,999.90
2023-05-17T15:10:23.872Z,999.90
2023-05-17T15:20:25.575Z,999.90
2023-05-17T15:30:27.499Z,999.90
2023-05-17T15:40:28.950Z,999.90
2023-05-17T15:50:30.371Z,999.90
2023-05-17T16:00:32.026Z,999.90
2023-05-17T16:10:33.541Z,999.90
2023-05-17T16:20:34.996Z,999.90
2023-05-17T16:30:37.262Z,999.90
2023-05-17T16:40:38.715Z,999.90
2023-05-17T16:50:41.317Z,999.90
2023-05-17T17:00:42.739Z,999.90
2023-05-17T17:10:44.167Z,999.90
2023-05-17T17:20:46.401Z,999.90
2023-05-17T17:30:47.984Z,999.90
2023-05-17T17:40:49.501Z,999.90
2023-05-17T17:50:51.304Z,999.90
2023-05-17T18:00:53.669Z,999.90
2023-05-17T18:10:55.409Z,999.90
2023-05-17T18:20:56.846Z,999.90
2023-05-17T18:30:58.531Z,999.90
2023-05-17T18:40:59.975Z,999.90
2023-05-17T18:51:01.988Z,999.90
2023-05-17T19:01:03.639Z,999.90
2023-05-17T19:11:06.670Z,999.15
2023-05-17T19:21:08.095Z,997.67
2023-05-17T19:31:09.648Z,981.40
2023-05-17T19:41:11.244Z,950.53
2023-05-17T19:51:12.698Z,950.25
2023-05-17T20:01:14.144Z,932.03
2023-05-17T20:11:15.918Z,917.75
2023-05-17T20:21:19.718Z,908.55
2023-05-17T20:31:21.494Z,906.35
2023-05-17T20:41:23.336Z,895.33
2023-05-17T20:51:26.873Z,885.50
2023-05-17T21:01:28.357Z,873.38
2023-05-17T21:11:29.912Z,860.22
2023-05-17T21:21:31.397Z,837.13
2023-05-17T21:31:32.890Z,836.25
2023-05-17T21:41:34.510Z,833.70
2023-05-17T21:51:36.207Z,830.17
2023-05-17T22:01:37.858Z,818.50
2023-05-17T22:11:40.627Z,801.85
2023-05-17T22:21:42.271Z,779.53
2023-05-17T22:31:44.015Z,773.88
2023-05-17T22:41:45.695Z,766.45
2023-05-17T22:51:47.148Z,750.28
2023-05-17T23:01:48.748Z,745.72
2023-05-17T23:11:50.263Z,732.90
2023-05-17T23:21:51.674Z,725.72
2023-05-17T23:31:53.395Z,710.90
2023-05-17T23:41:54.936Z,700.80
2023-05-17T23:51:56.394Z,684.92
